sensor_id;sensor_type;location;lat;lon;timestamp;P1;durP1;ratioP1;P2;durP2;ratioP2
79670;SDS011;69137;50.878;8.050;2023-12-14T00:01:26;25.20;;;10.85;;
79670;SDS011;69137;50.878;8.050;2023-12-14T00:03:52;16.35;;;9.45;;
79670;SDS011;69137;50.878;8.050;2023-12-14T00:06:17;15.60;;;9.65;;
79670;SDS011;69137;50.878;8.050;2023-12-14T00:08:43;17.13;;;10.07;;
79670;SDS011;69137;50.878;8.050;2023-12-14T00:11:09;19.58;;;9.40;;
79670;SDS011;69137;50.878;8.050;2023-12-14T00:13:35;16.67;;;9.43;;
79670;SDS011;69137;50.878;8.050;2023-12-14T00:16:01;16.70;;;10.00;;
79670;SDS011;69137;50.878;8.050;2023-12-14T00:18:27;17.00;;;9.30;;
79670;SDS011;69137;50.878;8.050;2023-12-14T00:20:53;13.55;;;9.20;;
79670;SDS011;69137;50.878;8.050;2023-12-14T00:23:21;15.40;;;9.25;;
79670;SDS011;69137;50.878;8.050;2023-12-14T00:25:47;18.45;;;9.48;;
79670;SDS011;69137;50.878;8.050;2023-12-14T00:28:13;16.35;;;10.35;;
79670;SDS011;69137;50.878;8.050;2023-12-14T00:30:39;18.85;;;10.30;;
79670;SDS011;69137;50.878;8.050;2023-12-14T00:33:04;18.33;;;10.05;;
79670;SDS011;69137;50.878;8.050;2023-12-14T00:35:30;16.35;;;8.65;;
79670;SDS011;69137;50.878;8.050;2023-12-14T00:37:55;15.60;;;9.13;;
79670;SDS011;69137;50.878;8.050;2023-12-14T00:40:21;16.70;;;9.32;;
79670;SDS011;69137;50.878;8.050;2023-12-14T00:42:46;18.45;;;9.60;;
79670;SDS011;69137;50.878;8.050;2023-12-14T00:45:11;18.50;;;9.77;;
79670;SDS011;69137;50.878;8.050;2023-12-14T00:47:37;15.55;;;9.00;;
79670;SDS011;69137;50.878;8.050;2023-12-14T00:50:02;17.95;;;9.57;;
79670;SDS011;69137;50.878;8.050;2023-12-14T00:52:28;14.68;;;8.90;;
79670;SDS011;69137;50.878;8.050;2023-12-14T00:54:54;14.77;;;8.73;;
79670;SDS011;69137;50.878;8.050;2023-12-14T00:57:19;14.48;;;8.98;;
79670;SDS011;69137;50.878;8.050;2023-12-14T00:59:45;16.83;;;9.27;;
79670;SDS011;69137;50.878;8.050;2023-12-14T01:02:10;14.85;;;9.27;;
79670;SDS011;69137;50.878;8.050;2023-12-14T01:04:36;14.75;;;9.00;;
79670;SDS011;69137;50.878;8.050;2023-12-14T01:07:02;13.43;;;8.63;;
79670;SDS011;69137;50.878;8.050;2023-12-14T01:09:27;16.88;;;9.02;;
79670;SDS011;69137;50.878;8.050;2023-12-14T01:11:53;16.10;;;8.95;;
79670;SDS011;69137;50.878;8.050;2023-12-14T01:14:18;13.80;;;9.57;;
79670;SDS011;69137;50.878;8.050;2023-12-14T01:16:44;13.90;;;8.27;;
79670;SDS011;69137;50.878;8.050;2023-12-14T01:19:09;14.82;;;8.68;;
79670;SDS011;69137;50.878;8.050;2023-12-14T01:21:34;16.52;;;8.35;;
79670;SDS011;69137;50.878;8.050;2023-12-14T01:24:00;13.95;;;8.77;;
79670;SDS011;69137;50.878;8.050;2023-12-14T01:26:26;16.23;;;8.63;;
79670;SDS011;69137;50.878;8.050;2023-12-14T01:28:52;15.30;;;8.35;;
79670;SDS011;69137;50.878;8.050;2023-12-14T01:31:17;11.40;;;7.80;;
79670;SDS011;69137;50.878;8.050;2023-12-14T01:33:43;11.68;;;8.60;;
79670;SDS011;69137;50.878;8.050;2023-12-14T01:36:10;15.55;;;8.40;;
79670;SDS011;69137;50.878;8.050;2023-12-14T01:38:36;13.60;;;8.95;;
79670;SDS011;69137;50.878;8.050;2023-12-14T01:41:02;13.60;;;8.27;;
79670;SDS011;69137;50.878;8.050;2023-12-14T01:43:27;16.90;;;8.98;;
79670;SDS011;69137;50.878;8.050;2023-12-14T01:45:53;10.48;;;7.47;;
79670;SDS011;69137;50.878;8.050;2023-12-14T01:48:18;14.52;;;8.35;;
79670;SDS011;69137;50.878;8.050;2023-12-14T01:50:43;17.27;;;8.85;;
79670;SDS011;69137;50.878;8.050;2023-12-14T01:53:09;12.85;;;8.35;;
79670;SDS011;69137;50.878;8.050;2023-12-14T01:55:34;15.55;;;8.23;;
79670;SDS011;69137;50.878;8.050;2023-12-14T01:58:00;20.30;;;8.77;;
79670;SDS011;69137;50.878;8.050;2023-12-14T02:03:02;19.65;;;8.88;;
79670;SDS011;69137;50.878;8.050;2023-12-14T02:05:28;17.08;;;8.35;;
79670;SDS011;69137;50.878;8.050;2023-12-14T02:07:54;14.70;;;8.63;;
79670;SDS011;69137;50.878;8.050;2023-12-14T02:10:19;14.32;;;8.18;;
79670;SDS011;69137;50.878;8.050;2023-12-14T02:12:45;14.48;;;8.98;;
79670;SDS011;69137;50.878;8.050;2023-12-14T02:15:11;16.88;;;9.60;;
79670;SDS011;69137;50.878;8.050;2023-12-14T02:17:36;12.60;;;8.18;;
79670;SDS011;69137;50.878;8.050;2023-12-14T02:20:02;13.45;;;8.10;;
79670;SDS011;69137;50.878;8.050;2023-12-14T02:22:32;15.23;;;8.55;;
79670;SDS011;69137;50.878;8.050;2023-12-14T02:25:01;15.48;;;8.18;;
79670;SDS011;69137;50.878;8.050;2023-12-14T02:27:26;14.68;;;9.40;;
79670;SDS011;69137;50.878;8.050;2023-12-14T02:29:51;14.48;;;8.80;;
79670;SDS011;69137;50.878;8.050;2023-12-14T02:32:17;18.10;;;9.45;;
79670;SDS011;69137;50.878;8.050;2023-12-14T02:34:42;17.40;;;8.93;;
79670;SDS011;69137;50.878;8.050;2023-12-14T02:37:08;15.43;;;7.60;;
79670;SDS011;69137;50.878;8.050;2023-12-14T02:39:33;12.52;;;8.25;;
79670;SDS011;69137;50.878;8.050;2023-12-14T02:41:58;14.80;;;9.25;;
79670;SDS011;69137;50.878;8.050;2023-12-14T02:44:24;14.57;;;8.95;;
79670;SDS011;69137;50.878;8.050;2023-12-14T02:46:49;18.13;;;8.13;;
79670;SDS011;69137;50.878;8.050;2023-12-14T02:49:15;15.25;;;8.38;;
79670;SDS011;69137;50.878;8.050;2023-12-14T02:51:40;12.55;;;8.15;;
79670;SDS011;69137;50.878;8.050;2023-12-14T02:54:05;15.23;;;8.05;;
79670;SDS011;69137;50.878;8.050;2023-12-14T02:56:31;14.00;;;8.80;;
79670;SDS011;69137;50.878;8.050;2023-12-14T02:58:56;13.63;;;8.48;;
79670;SDS011;69137;50.878;8.050;2023-12-14T03:01:22;13.30;;;7.90;;
79670;SDS011;69137;50.878;8.050;2023-12-14T03:03:47;12.73;;;7.57;;
79670;SDS011;69137;50.878;8.050;2023-12-14T03:06:13;11.85;;;7.65;;
79670;SDS011;69137;50.878;8.050;2023-12-14T03:08:38;11.18;;;7.28;;
79670;SDS011;69137;50.878;8.050;2023-12-14T03:11:03;15.23;;;7.75;;
79670;SDS011;69137;50.878;8.050;2023-12-14T03:13:29;14.40;;;8.07;;
79670;SDS011;69137;50.878;8.050;2023-12-14T03:15:54;19.17;;;8.90;;
79670;SDS011;69137;50.878;8.050;2023-12-14T03:18:20;17.45;;;8.32;;
79670;SDS011;69137;50.878;8.050;2023-12-14T03:20:45;14.38;;;8.07;;
79670;SDS011;69137;50.878;8.050;2023-12-14T03:23:11;15.98;;;8.93;;
79670;SDS011;69137;50.878;8.050;2023-12-14T03:25:36;12.10;;;7.40;;
79670;SDS011;69137;50.878;8.050;2023-12-14T03:28:02;15.98;;;8.40;;
79670;SDS011;69137;50.878;8.050;2023-12-14T03:30:27;13.70;;;8.63;;
79670;SDS011;69137;50.878;8.050;2023-12-14T03:32:52;15.38;;;7.68;;
79670;SDS011;69137;50.878;8.050;2023-12-14T03:35:18;11.85;;;7.00;;
79670;SDS011;69137;50.878;8.050;2023-12-14T03:37:43;12.13;;;8.85;;
79670;SDS011;69137;50.878;8.050;2023-12-14T03:40:09;12.50;;;8.40;;
79670;SDS011;69137;50.878;8.050;2023-12-14T03:42:35;15.63;;;8.45;;
79670;SDS011;69137;50.878;8.050;2023-12-14T03:45:00;12.57;;;7.82;;
79670;SDS011;69137;50.878;8.050;2023-12-14T03:47:26;13.52;;;8.50;;
79670;SDS011;69137;50.878;8.050;2023-12-14T03:49:51;15.25;;;9.15;;
79670;SDS011;69137;50.878;8.050;2023-12-14T03:52:17;11.93;;;6.85;;
79670;SDS011;69137;50.878;8.050;2023-12-14T03:54:42;14.48;;;8.13;;
79670;SDS011;69137;50.878;8.050;2023-12-14T03:57:08;18.30;;;7.60;;
79670;SDS011;69137;50.878;8.050;2023-12-14T03:59:33;14.73;;;8.20;;
79670;SDS011;69137;50.878;8.050;2023-12-14T04:01:59;17.13;;;8.13;;
79670;SDS011;69137;50.878;8.050;2023-12-14T04:04:24;20.27;;;9.43;;
79670;SDS011;69137;50.878;8.050;2023-12-14T04:06:50;23.10;;;9.10;;
79670;SDS011;69137;50.878;8.050;2023-12-14T04:09:16;15.95;;;9.05;;
79670;SDS011;69137;50.878;8.050;2023-12-14T04:11:41;16.15;;;8.93;;
79670;SDS011;69137;50.878;8.050;2023-12-14T04:14:07;18.15;;;8.20;;
79670;SDS011;69137;50.878;8.050;2023-12-14T04:16:34;12.70;;;7.43;;
79670;SDS011;69137;50.878;8.050;2023-12-14T04:19:00;12.70;;;7.97;;
79670;SDS011;69137;50.878;8.050;2023-12-14T04:21:25;13.27;;;8.02;;
79670;SDS011;69137;50.878;8.050;2023-12-14T04:23:50;18.90;;;9.05;;
79670;SDS011;69137;50.878;8.050;2023-12-14T04:26:16;14.90;;;7.53;;
79670;SDS011;69137;50.878;8.050;2023-12-14T04:28:41;11.68;;;7.47;;
79670;SDS011;69137;50.878;8.050;2023-12-14T04:31:09;14.55;;;7.78;;
79670;SDS011;69137;50.878;8.050;2023-12-14T04:33:35;17.15;;;8.98;;
79670;SDS011;69137;50.878;8.050;2023-12-14T04:36:00;16.52;;;8.98;;
79670;SDS011;69137;50.878;8.050;2023-12-14T04:38:27;17.27;;;8.77;;
79670;SDS011;69137;50.878;8.050;2023-12-14T04:40:52;24.42;;;9.30;;
79670;SDS011;69137;50.878;8.050;2023-12-14T04:43:17;23.65;;;10.90;;
79670;SDS011;69137;50.878;8.050;2023-12-14T04:45:43;23.35;;;10.85;;
79670;SDS011;69137;50.878;8.050;2023-12-14T04:48:09;22.92;;;10.85;;
79670;SDS011;69137;50.878;8.050;2023-12-14T04:50:37;25.95;;;10.88;;
79670;SDS011;69137;50.878;8.050;2023-12-14T04:53:02;25.10;;;10.13;;
79670;SDS011;69137;50.878;8.050;2023-12-14T04:55:28;24.77;;;9.57;;
79670;SDS011;69137;50.878;8.050;2023-12-14T04:57:53;25.17;;;11.55;;
79670;SDS011;69137;50.878;8.050;2023-12-14T05:00:18;22.50;;;9.95;;
79670;SDS011;69137;50.878;8.050;2023-12-14T05:02:47;22.98;;;11.00;;
79670;SDS011;69137;50.878;8.050;2023-12-14T05:05:13;24.48;;;10.00;;
79670;SDS011;69137;50.878;8.050;2023-12-14T05:07:39;17.88;;;9.65;;
79670;SDS011;69137;50.878;8.050;2023-12-14T05:10:04;24.23;;;10.93;;
79670;SDS011;69137;50.878;8.050;2023-12-14T05:12:30;25.73;;;10.98;;
79670;SDS011;69137;50.878;8.050;2023-12-14T05:14:56;22.70;;;10.75;;
79670;SDS011;69137;50.878;8.050;2023-12-14T05:17:22;28.40;;;10.23;;
79670;SDS011;69137;50.878;8.050;2023-12-14T05:19:47;25.90;;;10.25;;
79670;SDS011;69137;50.878;8.050;2023-12-14T05:22:13;25.90;;;10.60;;
79670;SDS011;69137;50.878;8.050;2023-12-14T05:24:38;23.08;;;9.73;;
79670;SDS011;69137;50.878;8.050;2023-12-14T05:27:04;19.17;;;9.82;;
79670;SDS011;69137;50.878;8.050;2023-12-14T05:29:29;23.15;;;10.63;;
79670;SDS011;69137;50.878;8.050;2023-12-14T05:31:56;20.08;;;11.00;;
79670;SDS011;69137;50.878;8.050;2023-12-14T05:34:21;22.48;;;10.85;;
79670;SDS011;69137;50.878;8.050;2023-12-14T05:36:47;19.45;;;10.02;;
79670;SDS011;69137;50.878;8.050;2023-12-14T05:39:12;18.52;;;9.60;;
79670;SDS011;69137;50.878;8.050;2023-12-14T05:41:41;17.48;;;9.13;;
79670;SDS011;69137;50.878;8.050;2023-12-14T05:44:06;20.02;;;9.82;;
79670;SDS011;69137;50.878;8.050;2023-12-14T05:46:32;21.85;;;10.10;;
79670;SDS011;69137;50.878;8.050;2023-12-14T05:48:57;22.63;;;10.60;;
79670;SDS011;69137;50.878;8.050;2023-12-14T05:51:29;20.67;;;10.02;;
79670;SDS011;69137;50.878;8.050;2023-12-14T05:53:56;21.17;;;9.93;;
79670;SDS011;69137;50.878;8.050;2023-12-14T05:56:22;18.42;;;9.52;;
79670;SDS011;69137;50.878;8.050;2023-12-14T05:58:48;17.45;;;9.35;;
79670;SDS011;69137;50.878;8.050;2023-12-14T06:01:16;17.23;;;8.65;;
79670;SDS011;69137;50.878;8.050;2023-12-14T06:03:42;13.18;;;6.93;;
79670;SDS011;69137;50.878;8.050;2023-12-14T06:06:07;20.00;;;8.02;;
79670;SDS011;69137;50.878;8.050;2023-12-14T06:08:33;12.15;;;6.68;;
79670;SDS011;69137;50.878;8.050;2023-12-14T06:10:58;9.35;;;5.60;;
79670;SDS011;69137;50.878;8.050;2023-12-14T06:13:24;7.45;;;3.45;;
79670;SDS011;69137;50.878;8.050;2023-12-14T06:15:49;5.55;;;3.58;;
79670;SDS011;69137;50.878;8.050;2023-12-14T06:18:15;6.53;;;3.67;;
79670;SDS011;69137;50.878;8.050;2023-12-14T06:20:40;5.63;;;3.75;;
79670;SDS011;69137;50.878;8.050;2023-12-14T06:23:05;5.70;;;3.40;;
79670;SDS011;69137;50.878;8.050;2023-12-14T06:25:31;7.93;;;3.03;;
79670;SDS011;69137;50.878;8.050;2023-12-14T06:27:56;6.43;;;3.05;;
79670;SDS011;69137;50.878;8.050;2023-12-14T06:30:22;7.85;;;3.72;;
79670;SDS011;69137;50.878;8.050;2023-12-14T06:32:47;4.45;;;2.85;;
79670;SDS011;69137;50.878;8.050;2023-12-14T06:35:13;4.65;;;2.55;;
79670;SDS011;69137;50.878;8.050;2023-12-14T06:37:38;6.57;;;3.00;;
79670;SDS011;69137;50.878;8.050;2023-12-14T06:40:06;3.97;;;2.42;;
79670;SDS011;69137;50.878;8.050;2023-12-14T06:42:33;4.15;;;2.47;;
79670;SDS011;69137;50.878;8.050;2023-12-14T06:44:59;3.90;;;2.28;;
79670;SDS011;69137;50.878;8.050;2023-12-14T06:47:25;5.80;;;2.85;;
79670;SDS011;69137;50.878;8.050;2023-12-14T06:49:50;3.33;;;2.10;;
79670;SDS011;69137;50.878;8.050;2023-12-14T06:52:16;3.47;;;2.03;;
79670;SDS011;69137;50.878;8.050;2023-12-14T06:54:41;5.20;;;2.70;;
79670;SDS011;69137;50.878;8.050;2023-12-14T06:57:07;4.72;;;2.47;;
79670;SDS011;69137;50.878;8.050;2023-12-14T06:59:32;5.60;;;2.20;;
79670;SDS011;69137;50.878;8.050;2023-12-14T07:01:57;4.65;;;2.55;;
79670;SDS011;69137;50.878;8.050;2023-12-14T07:04:23;4.72;;;2.80;;
79670;SDS011;69137;50.878;8.050;2023-12-14T07:06:52;4.43;;;2.15;;
79670;SDS011;69137;50.878;8.050;2023-12-14T07:09:18;3.80;;;2.00;;
79670;SDS011;69137;50.878;8.050;2023-12-14T07:11:44;4.22;;;2.40;;
79670;SDS011;69137;50.878;8.050;2023-12-14T07:14:09;4.22;;;2.55;;
79670;SDS011;69137;50.878;8.050;2023-12-14T07:16:34;9.85;;;2.47;;
79670;SDS011;69137;50.878;8.050;2023-12-14T07:19:00;3.92;;;2.20;;
79670;SDS011;69137;50.878;8.050;2023-12-14T07:21:25;4.47;;;2.40;;
79670;SDS011;69137;50.878;8.050;2023-12-14T07:23:51;3.70;;;2.20;;
79670;SDS011;69137;50.878;8.050;2023-12-14T07:26:16;5.10;;;2.55;;
79670;SDS011;69137;50.878;8.050;2023-12-14T07:28:41;5.90;;;2.58;;
79670;SDS011;69137;50.878;8.050;2023-12-14T07:31:07;5.10;;;2.92;;
79670;SDS011;69137;50.878;8.050;2023-12-14T07:33:32;4.85;;;2.53;;
79670;SDS011;69137;50.878;8.050;2023-12-14T07:35:58;5.57;;;2.65;;
79670;SDS011;69137;50.878;8.050;2023-12-14T07:38:23;6.25;;;3.47;;
79670;SDS011;69137;50.878;8.050;2023-12-14T07:40:48;5.47;;;2.67;;
79670;SDS011;69137;50.878;8.050;2023-12-14T07:43:15;4.30;;;2.50;;
79670;SDS011;69137;50.878;8.050;2023-12-14T07:45:41;4.35;;;2.30;;
79670;SDS011;69137;50.878;8.050;2023-12-14T07:48:06;4.63;;;2.40;;
79670;SDS011;69137;50.878;8.050;2023-12-14T07:50:32;4.75;;;2.65;;
79670;SDS011;69137;50.878;8.050;2023-12-14T07:52:57;4.32;;;2.10;;
79670;SDS011;69137;50.878;8.050;2023-12-14T07:55:23;4.68;;;2.40;;
79670;SDS011;69137;50.878;8.050;2023-12-14T07:57:48;3.42;;;1.90;;
79670;SDS011;69137;50.878;8.050;2023-12-14T08:00:14;4.60;;;2.55;;
79670;SDS011;69137;50.878;8.050;2023-12-14T08:02:40;4.47;;;2.55;;
79670;SDS011;69137;50.878;8.050;2023-12-14T08:05:07;10.00;;;2.85;;
79670;SDS011;69137;50.878;8.050;2023-12-14T08:07:32;6.28;;;2.88;;
79670;SDS011;69137;50.878;8.050;2023-12-14T08:09:58;5.00;;;2.55;;
79670;SDS011;69137;50.878;8.050;2023-12-14T08:12:24;5.85;;;2.58;;
79670;SDS011;69137;50.878;8.050;2023-12-14T08:14:50;6.05;;;2.95;;
79670;SDS011;69137;50.878;8.050;2023-12-14T08:17:15;4.10;;;2.55;;
79670;SDS011;69137;50.878;8.050;2023-12-14T08:19:41;5.13;;;2.47;;
79670;SDS011;69137;50.878;8.050;2023-12-14T08:22:07;5.75;;;2.70;;
79670;SDS011;69137;50.878;8.050;2023-12-14T08:27:01;4.22;;;2.28;;
79670;SDS011;69137;50.878;8.050;2023-12-14T08:29:26;4.53;;;2.33;;
79670;SDS011;69137;50.878;8.050;2023-12-14T08:31:52;6.25;;;3.00;;
79670;SDS011;69137;50.878;8.050;2023-12-14T08:34:18;5.28;;;2.67;;
79670;SDS011;69137;50.878;8.050;2023-12-14T08:36:43;4.78;;;2.50;;
79670;SDS011;69137;50.878;8.050;2023-12-14T08:39:09;6.63;;;2.45;;
79670;SDS011;69137;50.878;8.050;2023-12-14T08:41:35;5.00;;;2.60;;
79670;SDS011;69137;50.878;8.050;2023-12-14T08:44:00;4.28;;;2.25;;
79670;SDS011;69137;50.878;8.050;2023-12-14T08:46:25;4.53;;;2.42;;
79670;SDS011;69137;50.878;8.050;2023-12-14T08:48:51;8.98;;;4.03;;
79670;SDS011;69137;50.878;8.050;2023-12-14T08:51:17;7.43;;;3.03;;
79670;SDS011;69137;50.878;8.050;2023-12-14T08:53:43;4.05;;;2.13;;
79670;SDS011;69137;50.878;8.050;2023-12-14T08:56:08;8.35;;;4.47;;
79670;SDS011;69137;50.878;8.050;2023-12-14T08:58:34;11.30;;;5.38;;
79670;SDS011;69137;50.878;8.050;2023-12-14T09:00:59;9.65;;;5.57;;
79670;SDS011;69137;50.878;8.050;2023-12-14T09:03:25;3.83;;;2.42;;
79670;SDS011;69137;50.878;8.050;2023-12-14T09:05:51;3.63;;;2.40;;
79670;SDS011;69137;50.878;8.050;2023-12-14T09:08:17;4.30;;;2.38;;
79670;SDS011;69137;50.878;8.050;2023-12-14T09:10:42;6.32;;;3.22;;
79670;SDS011;69137;50.878;8.050;2023-12-14T09:13:08;5.63;;;3.15;;
79670;SDS011;69137;50.878;8.050;2023-12-14T09:15:33;16.52;;;6.97;;
79670;SDS011;69137;50.878;8.050;2023-12-14T09:17:59;8.93;;;3.80;;
79670;SDS011;69137;50.878;8.050;2023-12-14T09:20:24;7.85;;;3.72;;
79670;SDS011;69137;50.878;8.050;2023-12-14T09:22:50;5.60;;;3.40;;
79670;SDS011;69137;50.878;8.050;2023-12-14T09:25:15;3.80;;;2.60;;
79670;SDS011;69137;50.878;8.050;2023-12-14T09:27:41;5.43;;;2.75;;
79670;SDS011;69137;50.878;8.050;2023-12-14T09:30:07;6.28;;;3.65;;
79670;SDS011;69137;50.878;8.050;2023-12-14T09:32:33;5.20;;;3.72;;
79670;SDS011;69137;50.878;8.050;2023-12-14T09:34:59;4.10;;;2.92;;
79670;SDS011;69137;50.878;8.050;2023-12-14T09:37:24;5.43;;;2.95;;
79670;SDS011;69137;50.878;8.050;2023-12-14T09:39:50;4.35;;;2.95;;
79670;SDS011;69137;50.878;8.050;2023-12-14T09:42:17;5.82;;;3.50;;
79670;SDS011;69137;50.878;8.050;2023-12-14T09:44:47;6.55;;;3.67;;
79670;SDS011;69137;50.878;8.050;2023-12-14T09:47:13;11.15;;;6.00;;
79670;SDS011;69137;50.878;8.050;2023-12-14T09:49:38;6.00;;;3.70;;
79670;SDS011;69137;50.878;8.050;2023-12-14T09:52:08;12.75;;;6.18;;
79670;SDS011;69137;50.878;8.050;2023-12-14T09:54:34;6.93;;;3.72;;
79670;SDS011;69137;50.878;8.050;2023-12-14T09:56:59;9.38;;;3.38;;
79670;SDS011;69137;50.878;8.050;2023-12-14T09:59:24;6.60;;;3.45;;
79670;SDS011;69137;50.878;8.050;2023-12-14T10:01:50;8.02;;;4.25;;
79670;SDS011;69137;50.878;8.050;2023-12-14T10:04:17;13.63;;;5.25;;
79670;SDS011;69137;50.878;8.050;2023-12-14T10:06:45;17.98;;;8.32;;
79670;SDS011;69137;50.878;8.050;2023-12-14T10:09:12;5.88;;;3.50;;
79670;SDS011;69137;50.878;8.050;2023-12-14T10:11:43;6.05;;;3.05;;
79670;SDS011;69137;50.878;8.050;2023-12-14T10:16:48;5.93;;;3.75;;
79670;SDS011;69137;50.878;8.050;2023-12-14T10:19:15;7.75;;;4.32;;
79670;SDS011;69137;50.878;8.050;2023-12-14T10:21:42;6.72;;;3.33;;
79670;SDS011;69137;50.878;8.050;2023-12-14T10:24:07;12.85;;;7.88;;
79670;SDS011;69137;50.878;8.050;2023-12-14T10:26:32;8.98;;;5.30;;
79670;SDS011;69137;50.878;8.050;2023-12-14T10:28:58;8.23;;;4.53;;
79670;SDS011;69137;50.878;8.050;2023-12-14T10:31:23;8.05;;;4.55;;
79670;SDS011;69137;50.878;8.050;2023-12-14T10:33:51;7.15;;;3.75;;
79670;SDS011;69137;50.878;8.050;2023-12-14T10:36:19;9.27;;;5.13;;
79670;SDS011;69137;50.878;8.050;2023-12-14T10:38:50;5.00;;;3.08;;
79670;SDS011;69137;50.878;8.050;2023-12-14T10:41:18;5.85;;;3.58;;
79670;SDS011;69137;50.878;8.050;2023-12-14T10:43:47;5.47;;;3.35;;
79670;SDS011;69137;50.878;8.050;2023-12-14T10:46:14;7.78;;;3.67;;
79670;SDS011;69137;50.878;8.050;2023-12-14T10:48:40;12.25;;;4.68;;
79670;SDS011;69137;50.878;8.050;2023-12-14T10:51:09;11.30;;;5.97;;
79670;SDS011;69137;50.878;8.050;2023-12-14T10:53:36;12.00;;;6.28;;
79670;SDS011;69137;50.878;8.050;2023-12-14T10:56:03;6.85;;;3.33;;
79670;SDS011;69137;50.878;8.050;2023-12-14T10:58:56;20.95;;;10.05;;
79670;SDS011;69137;50.878;8.050;2023-12-14T11:01:22;15.00;;;7.28;;
79670;SDS011;69137;50.878;8.050;2023-12-14T11:03:49;10.20;;;4.60;;
79670;SDS011;69137;50.878;8.050;2023-12-14T11:08:56;5.72;;;2.88;;
79670;SDS011;69137;50.878;8.050;2023-12-14T11:11:27;5.28;;;2.97;;
79670;SDS011;69137;50.878;8.050;2023-12-14T11:13:53;5.20;;;3.20;;
79670;SDS011;69137;50.878;8.050;2023-12-14T11:16:26;4.15;;;2.88;;
79670;SDS011;69137;50.878;8.050;2023-12-14T11:24:30;9.93;;;3.35;;
79670;SDS011;69137;50.878;8.050;2023-12-14T11:26:56;5.20;;;3.15;;
79670;SDS011;69137;50.878;8.050;2023-12-14T11:29:21;5.35;;;3.35;;
79670;SDS011;69137;50.878;8.050;2023-12-14T11:31:47;7.63;;;4.93;;
79670;SDS011;69137;50.878;8.050;2023-12-14T11:34:16;7.03;;;3.72;;
79670;SDS011;69137;50.878;8.050;2023-12-14T11:36:42;7.18;;;3.88;;
79670;SDS011;69137;50.878;8.050;2023-12-14T11:39:07;6.70;;;3.42;;
79670;SDS011;69137;50.878;8.050;2023-12-14T11:41:34;7.60;;;4.18;;
79670;SDS011;69137;50.878;8.050;2023-12-14T11:44:00;6.20;;;3.35;;
79670;SDS011;69137;50.878;8.050;2023-12-14T11:46:26;5.15;;;3.20;;
79670;SDS011;69137;50.878;8.050;2023-12-14T11:48:51;6.80;;;3.50;;
79670;SDS011;69137;50.878;8.050;2023-12-14T11:51:17;7.35;;;3.50;;
79670;SDS011;69137;50.878;8.050;2023-12-14T11:53:44;5.22;;;2.97;;
79670;SDS011;69137;50.878;8.050;2023-12-14T11:56:10;4.93;;;2.85;;
79670;SDS011;69137;50.878;8.050;2023-12-14T11:58:35;5.80;;;3.03;;
79670;SDS011;69137;50.878;8.050;2023-12-14T12:01:14;8.50;;;3.22;;
79670;SDS011;69137;50.878;8.050;2023-12-14T12:03:41;5.22;;;3.20;;
79670;SDS011;69137;50.878;8.050;2023-12-14T12:06:09;5.22;;;3.45;;
79670;SDS011;69137;50.878;8.050;2023-12-14T12:08:53;6.40;;;3.20;;
79670;SDS011;69137;50.878;8.050;2023-12-14T12:11:19;6.45;;;2.85;;
79670;SDS011;69137;50.878;8.050;2023-12-14T12:13:53;7.97;;;3.20;;
79670;SDS011;69137;50.878;8.050;2023-12-14T12:16:20;7.40;;;3.65;;
79670;SDS011;69137;50.878;8.050;2023-12-14T12:18:46;6.70;;;3.75;;
79670;SDS011;69137;50.878;8.050;2023-12-14T12:21:11;6.53;;;3.03;;
79670;SDS011;69137;50.878;8.050;2023-12-14T12:23:37;7.95;;;3.47;;
79670;SDS011;69137;50.878;8.050;2023-12-14T12:26:03;7.03;;;3.45;;
79670;SDS011;69137;50.878;8.050;2023-12-14T12:28:30;6.50;;;3.08;;
79670;SDS011;69137;50.878;8.050;2023-12-14T12:30:56;6.18;;;2.92;;
79670;SDS011;69137;50.878;8.050;2023-12-14T12:33:21;8.90;;;3.90;;
79670;SDS011;69137;50.878;8.050;2023-12-14T12:35:46;6.80;;;3.90;;
79670;SDS011;69137;50.878;8.050;2023-12-14T12:38:12;6.45;;;3.70;;
79670;SDS011;69137;50.878;8.050;2023-12-14T12:40:37;8.77;;;3.75;;
79670;SDS011;69137;50.878;8.050;2023-12-14T12:43:03;7.53;;;4.05;;
79670;SDS011;69137;50.878;8.050;2023-12-14T12:45:29;7.38;;;3.65;;
79670;SDS011;69137;50.878;8.050;2023-12-14T12:47:54;7.55;;;4.03;;
79670;SDS011;69137;50.878;8.050;2023-12-14T12:50:20;8.38;;;3.75;;
79670;SDS011;69137;50.878;8.050;2023-12-14T12:52:46;9.38;;;4.50;;
79670;SDS011;69137;50.878;8.050;2023-12-14T12:55:13;7.63;;;4.28;;
79670;SDS011;69137;50.878;8.050;2023-12-14T12:57:40;8.13;;;4.30;;
79670;SDS011;69137;50.878;8.050;2023-12-14T13:00:07;10.07;;;4.90;;
79670;SDS011;69137;50.878;8.050;2023-12-14T13:02:39;9.10;;;4.38;;
79670;SDS011;69137;50.878;8.050;2023-12-14T13:05:06;10.35;;;5.22;;
79670;SDS011;69137;50.878;8.050;2023-12-14T13:07:32;8.93;;;4.45;;
79670;SDS011;69137;50.878;8.050;2023-12-14T13:09:59;12.63;;;4.97;;
79670;SDS011;69137;50.878;8.050;2023-12-14T13:12:24;11.52;;;5.55;;
79670;SDS011;69137;50.878;8.050;2023-12-14T13:14:50;10.18;;;5.25;;
79670;SDS011;69137;50.878;8.050;2023-12-14T13:17:15;8.63;;;4.93;;
79670;SDS011;69137;50.878;8.050;2023-12-14T13:19:43;12.73;;;5.63;;
79670;SDS011;69137;50.878;8.050;2023-12-14T13:24:37;10.63;;;4.95;;
79670;SDS011;69137;50.878;8.050;2023-12-14T13:27:03;16.67;;;6.03;;
79670;SDS011;69137;50.878;8.050;2023-12-14T13:29:29;14.50;;;6.32;;
79670;SDS011;69137;50.878;8.050;2023-12-14T13:31:57;11.23;;;5.88;;
79670;SDS011;69137;50.878;8.050;2023-12-14T13:34:22;15.32;;;7.13;;
79670;SDS011;69137;50.878;8.050;2023-12-14T13:36:48;13.43;;;6.03;;
79670;SDS011;69137;50.878;8.050;2023-12-14T13:39:13;12.30;;;4.97;;
79670;SDS011;69137;50.878;8.050;2023-12-14T13:41:39;12.70;;;6.25;;
79670;SDS011;69137;50.878;8.050;2023-12-14T13:44:04;9.32;;;5.75;;
79670;SDS011;69137;50.878;8.050;2023-12-14T13:46:30;11.82;;;5.78;;
79670;SDS011;69137;50.878;8.050;2023-12-14T13:48:55;10.27;;;5.50;;
79670;SDS011;69137;50.878;8.050;2023-12-14T13:51:21;10.90;;;4.95;;
79670;SDS011;69137;50.878;8.050;2023-12-14T13:53:46;10.55;;;5.15;;
79670;SDS011;69137;50.878;8.050;2023-12-14T13:56:12;9.65;;;4.50;;
79670;SDS011;69137;50.878;8.050;2023-12-14T13:58:37;9.93;;;4.70;;
79670;SDS011;69137;50.878;8.050;2023-12-14T14:01:03;10.43;;;5.00;;
79670;SDS011;69137;50.878;8.050;2023-12-14T14:03:32;9.13;;;4.93;;
79670;SDS011;69137;50.878;8.050;2023-12-14T14:06:02;8.98;;;4.55;;
79670;SDS011;69137;50.878;8.050;2023-12-14T14:08:28;7.63;;;3.95;;
79670;SDS011;69137;50.878;8.050;2023-12-14T14:10:56;9.23;;;5.03;;
79670;SDS011;69137;50.878;8.050;2023-12-14T14:13:22;9.57;;;4.57;;
79670;SDS011;69137;50.878;8.050;2023-12-14T14:15:47;9.13;;;4.82;;
79670;SDS011;69137;50.878;8.050;2023-12-14T14:18:13;11.98;;;5.25;;
79670;SDS011;69137;50.878;8.050;2023-12-14T14:20:38;9.65;;;4.72;;
79670;SDS011;69137;50.878;8.050;2023-12-14T14:23:04;8.40;;;4.15;;
79670;SDS011;69137;50.878;8.050;2023-12-14T14:25:29;9.02;;;3.75;;
79670;SDS011;69137;50.878;8.050;2023-12-14T14:27:55;10.35;;;4.75;;
79670;SDS011;69137;50.878;8.050;2023-12-14T14:30:20;8.63;;;4.72;;
79670;SDS011;69137;50.878;8.050;2023-12-14T14:32:46;10.40;;;4.75;;
79670;SDS011;69137;50.878;8.050;2023-12-14T14:35:11;9.48;;;4.53;;
79670;SDS011;69137;50.878;8.050;2023-12-14T14:37:37;9.98;;;5.20;;
79670;SDS011;69137;50.878;8.050;2023-12-14T14:40:03;7.43;;;4.60;;
79670;SDS011;69137;50.878;8.050;2023-12-14T14:42:29;8.43;;;5.05;;
79670;SDS011;69137;50.878;8.050;2023-12-14T14:44:55;11.40;;;5.35;;
79670;SDS011;69137;50.878;8.050;2023-12-14T14:47:21;9.80;;;4.95;;
79670;SDS011;69137;50.878;8.050;2023-12-14T14:49:47;9.48;;;4.70;;
79670;SDS011;69137;50.878;8.050;2023-12-14T14:52:12;8.27;;;4.82;;